createdAt,value
2019-03-10T00:00:10.244Z,4.97
2019-03-10T00:02:39.133Z,4.98
2019-03-10T00:05:08.405Z,4.89
2019-03-10T00:07:37.615Z,4.92
2019-03-10T00:10:08.638Z,4.97
2019-03-10T00:12:37.711Z,5.02
2019-03-10T00:15:06.985Z,5.05
2019-03-10T00:17:35.999Z,5.03
2019-03-10T00:20:05.329Z,5.04
2019-03-10T00:22:34.471Z,5.06
2019-03-10T00:25:03.391Z,5.08
2019-03-10T00:27:32.637Z,5.15
2019-03-10T00:30:01.657Z,5.18
2019-03-10T00:32:31.100Z,5.12
2019-03-10T00:35:00.167Z,5.05
2019-03-10T00:37:29.806Z,5.14
2019-03-10T00:40:34.635Z,5.08
2019-03-10T00:43:41.326Z,5.09
2019-03-10T00:47:00.458Z,5.18
2019-03-10T00:50:02.535Z,5.18
2019-03-10T00:52:36.870Z,5.21
2019-03-10T00:55:05.959Z,5.19
2019-03-10T00:57:34.969Z,5.17
2019-03-10T01:00:05.216Z,5.10
2019-03-10T01:02:34.136Z,5.14
2019-03-10T01:05:05.082Z,5.11
2019-03-10T01:15:41.829Z,5.09
2019-03-10T01:18:11.821Z,5.06
2019-03-10T01:20:41.408Z,5.08
2019-03-10T01:23:10.726Z,4.99
2019-03-10T01:25:39.615Z,5.04
2019-03-10T01:28:08.602Z,5.00
2019-03-10T01:30:42.400Z,5.06
2019-03-10T01:34:01.456Z,5.11
2019-03-10T01:36:28.845Z,4.99
2019-03-10T01:38:58.142Z,5.02
2019-03-10T01:41:27.155Z,4.94
2019-03-10T01:43:56.055Z,5.03
2019-03-10T01:46:24.897Z,5.03
2019-03-10T01:48:54.011Z,5.01
2019-03-10T01:51:22.903Z,4.95
2019-03-10T01:53:52.145Z,4.91
2019-03-10T01:56:21.013Z,4.94
2019-03-10T01:58:50.230Z,4.93
2019-03-10T02:01:19.231Z,4.87
2019-03-10T02:03:48.366Z,4.89
2019-03-10T02:06:17.285Z,4.95
2019-03-10T02:08:46.111Z,4.89
2019-03-10T02:11:15.103Z,4.96
2019-03-10T02:13:43.924Z,4.88
2019-03-10T02:16:12.813Z,4.85
2019-03-10T02:18:41.619Z,4.93
2019-03-10T02:21:10.503Z,4.79
2019-03-10T02:23:39.398Z,4.91
2019-03-10T02:26:08.436Z,4.88
2019-03-10T02:28:37.308Z,4.83
2019-03-10T02:31:06.240Z,4.91
2019-03-10T02:33:35.062Z,4.80
2019-03-10T02:36:04.358Z,4.82
2019-03-10T02:38:33.245Z,4.78
2019-03-10T02:41:02.159Z,4.71
2019-03-10T02:43:30.941Z,4.73
2019-03-10T02:45:59.793Z,4.79
2019-03-10T02:48:28.621Z,4.70
2019-03-10T02:50:57.431Z,4.77
2019-03-10T02:53:26.344Z,4.71
2019-03-10T02:55:55.238Z,4.66
2019-03-10T02:58:24.061Z,4.70
2019-03-10T03:00:53.294Z,4.68
2019-03-10T03:03:22.134Z,4.55
2019-03-10T03:05:51.129Z,4.69
2019-03-10T03:08:19.978Z,4.65
2019-03-10T03:10:58.813Z,4.64
2019-03-10T03:13:27.627Z,4.67
2019-03-10T03:15:56.535Z,4.60
2019-03-10T03:18:25.414Z,4.54
2019-03-10T03:20:54.247Z,4.52
2019-03-10T03:23:23.069Z,4.49
2019-03-10T03:25:53.415Z,4.48
2019-03-10T03:28:22.301Z,4.53
2019-03-10T03:30:51.339Z,4.57
2019-03-10T03:33:20.212Z,4.50
2019-03-10T03:35:55.247Z,4.53
2019-03-10T03:38:39.499Z,4.44
2019-03-10T03:41:11.612Z,4.56
2019-03-10T03:43:40.526Z,4.44
2019-03-10T03:46:09.775Z,4.33
2019-03-10T03:48:38.649Z,4.36
2019-03-10T03:51:07.501Z,4.40
2019-03-10T03:53:36.424Z,4.45
2019-03-10T03:56:05.820Z,4.34
2019-03-10T03:58:35.648Z,4.31
2019-03-10T04:01:11.825Z,4.39
2019-03-10T04:03:40.770Z,4.41
2019-03-10T04:06:09.623Z,4.54
2019-03-10T04:08:40.946Z,4.40
2019-03-10T04:11:09.826Z,4.45
2019-03-10T04:13:38.827Z,4.40
2019-03-10T04:16:07.626Z,4.46
2019-03-10T04:18:36.459Z,4.38
2019-03-10T04:21:05.444Z,4.52
2019-03-10T04:23:34.330Z,4.63
2019-03-10T04:26:03.539Z,4.56
2019-03-10T04:28:32.325Z,4.49
2019-03-10T04:31:01.184Z,4.55
2019-03-10T04:33:30.114Z,4.57
2019-03-10T04:35:59.300Z,4.55
2019-03-10T04:38:28.243Z,4.56
2019-03-10T04:40:57.048Z,4.51
2019-03-10T04:43:25.906Z,4.47
2019-03-10T04:45:54.833Z,4.50
2019-03-10T04:48:23.645Z,4.50
2019-03-10T04:50:52.430Z,4.48
2019-03-10T04:53:21.232Z,4.48
2019-03-10T04:55:55.086Z,4.58
2019-03-10T04:58:23.993Z,4.58
2019-03-10T05:00:54.601Z,4.43
2019-03-10T05:03:23.610Z,4.57
2019-03-10T05:05:52.423Z,4.49
2019-03-10T05:08:21.236Z,4.43
2019-03-10T05:10:50.300Z,4.54
2019-03-10T05:13:19.244Z,4.42
2019-03-10T05:15:48.209Z,4.41
2019-03-10T05:18:17.098Z,4.48
2019-03-10T05:20:45.985Z,4.42
2019-03-10T05:23:47.002Z,4.35
2019-03-10T05:26:16.953Z,4.32
2019-03-10T05:28:46.984Z,4.42
2019-03-10T05:31:16.002Z,4.31
2019-03-10T05:33:45.448Z,4.33
2019-03-10T05:36:14.423Z,4.30
2019-03-10T05:38:43.311Z,4.26
2019-03-10T05:41:12.129Z,4.31
2019-03-10T05:43:40.896Z,4.33
2019-03-10T05:46:09.710Z,4.37
2019-03-10T05:48:38.583Z,4.40
2019-03-10T05:51:07.485Z,4.30
2019-03-10T05:53:36.607Z,4.42
2019-03-10T05:56:05.474Z,4.50
2019-03-10T05:58:35.388Z,4.47
2019-03-10T06:01:04.482Z,4.35
2019-03-10T06:03:33.881Z,4.40
2019-03-10T06:06:02.695Z,4.44
2019-03-10T06:08:31.493Z,4.44
2019-03-10T06:11:00.393Z,4.48
2019-03-10T06:13:30.330Z,4.44
2019-03-10T06:15:59.146Z,4.43
2019-03-10T06:18:28.065Z,4.47
2019-03-10T06:20:56.931Z,4.47
2019-03-10T06:23:26.090Z,4.48
2019-03-10T06:25:54.910Z,4.47
2019-03-10T06:28:24.064Z,4.49
2019-03-10T06:30:53.283Z,4.56
2019-03-10T06:33:22.137Z,4.56
2019-03-10T06:35:51.995Z,4.58
2019-03-10T06:38:20.959Z,4.61
2019-03-10T06:40:49.786Z,4.59
2019-03-10T06:43:18.633Z,4.56
2019-03-10T06:45:47.646Z,4.64
2019-03-10T06:48:16.435Z,4.69
2019-03-10T06:50:45.248Z,4.74
2019-03-10T06:53:14.055Z,4.69
2019-03-10T06:55:42.862Z,4.74
2019-03-10T06:58:12.165Z,4.71
2019-03-10T07:00:41.677Z,4.76
2019-03-10T07:03:11.596Z,4.86
2019-03-10T07:05:40.928Z,4.89
2019-03-10T07:08:09.865Z,5.03
2019-03-10T07:10:38.665Z,4.96
2019-03-10T07:13:07.505Z,5.00
2019-03-10T07:15:36.418Z,5.14
2019-03-10T07:18:05.367Z,5.17
2019-03-10T07:20:34.136Z,5.17
2019-03-10T07:23:04.810Z,5.25
2019-03-10T07:25:33.626Z,5.36
2019-03-10T07:28:16.875Z,5.42
2019-03-10T07:31:03.174Z,5.49
2019-03-10T07:33:38.888Z,5.47
2019-03-10T07:36:18.202Z,5.68
2019-03-10T07:39:21.306Z,5.65
2019-03-10T07:42:10.866Z,5.74
2019-03-10T07:45:00.213Z,6.06
2019-03-10T07:47:41.809Z,6.01
2019-03-10T07:50:29.905Z,6.26
2019-03-10T07:53:14.046Z,6.15
2019-03-10T07:55:50.268Z,5.99
2019-03-10T07:58:40.913Z,6.08
2019-03-10T08:01:37.812Z,6.10
2019-03-10T08:04:30.880Z,6.24
2019-03-10T08:07:17.936Z,6.31
2019-03-10T08:10:07.164Z,6.85
2019-03-10T08:13:01.150Z,7.12
2019-03-10T08:15:37.746Z,7.03
2019-03-10T08:18:32.448Z,7.40
2019-03-10T08:21:20.115Z,7.27
2019-03-10T08:24:09.025Z,7.41
2019-03-10T08:26:47.317Z,7.66
2019-03-10T08:29:49.802Z,7.40
2019-03-10T08:32:42.963Z,6.98
2019-03-10T08:35:33.814Z,7.10
2019-03-10T08:38:40.192Z,7.05
2019-03-10T08:41:20.860Z,6.92
2019-03-10T08:44:17.435Z,7.02
2019-03-10T08:46:53.158Z,7.15
2019-03-10T08:49:47.960Z,6.99
2019-03-10T08:52:27.943Z,6.92
2019-03-10T08:55:04.732Z,6.95
2019-03-10T08:57:51.266Z,6.89
2019-03-10T09:00:45.458Z,7.04
2019-03-10T09:03:36.139Z,6.68
2019-03-10T09:06:14.060Z,6.72
2019-03-10T09:08:56.282Z,6.82
2019-03-10T09:11:56.288Z,6.54
2019-03-10T09:14:34.918Z,6.82
2019-03-10T09:17:15.896Z,6.78
2019-03-10T09:19:58.084Z,6.91
2019-03-10T09:22:33.480Z,6.89
2019-03-10T09:25:29.522Z,6.81
2019-03-10T09:28:28.676Z,6.72
2019-03-10T09:31:19.897Z,6.90
2019-03-10T09:34:04.657Z,6.97
2019-03-10T09:36:53.140Z,6.93
2019-03-10T09:39:32.956Z,6.98
2019-03-10T09:42:33.333Z,7.00
2019-03-10T09:45:13.891Z,6.92
2019-03-10T09:48:13.547Z,7.18
2019-03-10T09:51:02.404Z,7.21
2019-03-10T09:53:50.937Z,7.31
2019-03-10T09:56:33.475Z,7.22
2019-03-10T09:59:21.453Z,7.38
2019-03-10T10:01:59.279Z,7.26
2019-03-10T10:04:53.965Z,7.08
2019-03-10T10:07:44.799Z,7.08
2019-03-10T10:10:32.787Z,7.25
2019-03-10T10:13:22.927Z,7.07
2019-03-10T10:20:26.576Z,7.38
2019-03-10T10:23:12.767Z,7.63
2019-03-10T10:26:02.940Z,7.62
2019-03-10T10:28:39.307Z,7.68
2019-03-10T10:31:30.348Z,7.51
2019-03-10T23:46:24.880Z,3.55
2019-03-10T23:49:51.778Z,3.66
2019-03-10T23:52:40.523Z,3.63
2019-03-10T23:55:21.336Z,3.49
2019-03-10T23:58:00.784Z,3.60
